sensor_id;sensor_type;location;lat;lon;timestamp;P1;durP1;ratioP1;P2;durP2;ratioP2
16705;SDS011;8469;60.136;15.180;2023-06-19T00:00:46;14.23;;;7.92;;
16705;SDS011;8469;60.136;15.180;2023-06-19T00:03:14;21.40;;;8.28;;
16705;SDS011;8469;60.136;15.180;2023-06-19T00:05:41;12.00;;;8.00;;
16705;SDS011;8469;60.136;15.180;2023-06-19T00:08:08;11.83;;;8.28;;
16705;SDS011;8469;60.136;15.180;2023-06-19T00:10:36;14.98;;;7.78;;
16705;SDS011;8469;60.136;15.180;2023-06-19T00:13:04;13.85;;;7.83;;
16705;SDS011;8469;60.136;15.180;2023-06-19T00:15:31;11.63;;;8.00;;
16705;SDS011;8469;60.136;15.180;2023-06-19T00:17:58;12.18;;;7.80;;
16705;SDS011;8469;60.136;15.180;2023-06-19T00:20:26;11.78;;;7.95;;
16705;SDS011;8469;60.136;15.180;2023-06-19T00:22:52;14.63;;;7.65;;
16705;SDS011;8469;60.136;15.180;2023-06-19T00:25:21;16.55;;;7.70;;
16705;SDS011;8469;60.136;15.180;2023-06-19T00:27:48;11.78;;;7.35;;
16705;SDS011;8469;60.136;15.180;2023-06-19T00:30:15;13.22;;;7.72;;
16705;SDS011;8469;60.136;15.180;2023-06-19T00:32:43;13.32;;;7.60;;
16705;SDS011;8469;60.136;15.180;2023-06-19T00:35:16;12.05;;;7.80;;
16705;SDS011;8469;60.136;15.180;2023-06-19T00:37:45;12.37;;;7.90;;
16705;SDS011;8469;60.136;15.180;2023-06-19T00:40:19;12.05;;;7.83;;
16705;SDS011;8469;60.136;15.180;2023-06-19T00:42:41;13.10;;;7.43;;
16705;SDS011;8469;60.136;15.180;2023-06-19T00:45:09;10.70;;;7.35;;
16705;SDS011;8469;60.136;15.180;2023-06-19T00:47:37;13.68;;;7.35;;
16705;SDS011;8469;60.136;15.180;2023-06-19T00:50:05;10.15;;;6.78;;
16705;SDS011;8469;60.136;15.180;2023-06-19T00:52:32;11.48;;;7.17;;
16705;SDS011;8469;60.136;15.180;2023-06-19T00:54:59;13.78;;;7.58;;
16705;SDS011;8469;60.136;15.180;2023-06-19T00:57:27;13.22;;;6.92;;
16705;SDS011;8469;60.136;15.180;2023-06-19T00:59:55;13.53;;;6.72;;
16705;SDS011;8469;60.136;15.180;2023-06-19T01:02:24;12.33;;;6.90;;
16705;SDS011;8469;60.136;15.180;2023-06-19T01:04:52;11.73;;;6.30;;
16705;SDS011;8469;60.136;15.180;2023-06-19T01:07:20;10.90;;;6.90;;
16705;SDS011;8469;60.136;15.180;2023-06-19T01:09:52;11.17;;;6.33;;
16705;SDS011;8469;60.136;15.180;2023-06-19T01:12:21;9.90;;;6.03;;
16705;SDS011;8469;60.136;15.180;2023-06-19T01:14:54;9.95;;;6.62;;
16705;SDS011;8469;60.136;15.180;2023-06-19T01:17:26;10.53;;;6.33;;
16705;SDS011;8469;60.136;15.180;2023-06-19T01:19:55;14.30;;;6.70;;
16705;SDS011;8469;60.136;15.180;2023-06-19T01:22:30;12.70;;;6.13;;
16705;SDS011;8469;60.136;15.180;2023-06-19T01:24:54;11.33;;;5.87;;
16705;SDS011;8469;60.136;15.180;2023-06-19T01:27:21;10.35;;;5.90;;
16705;SDS011;8469;60.136;15.180;2023-06-19T01:29:51;9.83;;;6.00;;
16705;SDS011;8469;60.136;15.180;2023-06-19T01:32:36;12.63;;;6.35;;
16705;SDS011;8469;60.136;15.180;2023-06-19T01:35:03;9.77;;;6.40;;
16705;SDS011;8469;60.136;15.180;2023-06-19T01:37:31;10.45;;;6.00;;
16705;SDS011;8469;60.136;15.180;2023-06-19T01:39:59;9.47;;;5.87;;
16705;SDS011;8469;60.136;15.180;2023-06-19T01:42:28;15.48;;;6.45;;
16705;SDS011;8469;60.136;15.180;2023-06-19T01:44:56;11.45;;;6.08;;
16705;SDS011;8469;60.136;15.180;2023-06-19T01:47:23;11.85;;;6.20;;
16705;SDS011;8469;60.136;15.180;2023-06-19T01:49:53;13.62;;;6.10;;
16705;SDS011;8469;60.136;15.180;2023-06-19T01:52:21;11.08;;;6.17;;
16705;SDS011;8469;60.136;15.180;2023-06-19T01:54:48;11.95;;;6.08;;
16705;SDS011;8469;60.136;15.180;2023-06-19T01:57:16;9.35;;;5.37;;
16705;SDS011;8469;60.136;15.180;2023-06-19T01:59:43;8.85;;;5.92;;
16705;SDS011;8469;60.136;15.180;2023-06-19T02:02:10;9.03;;;5.50;;
16705;SDS011;8469;60.136;15.180;2023-06-19T02:04:38;9.90;;;5.97;;
16705;SDS011;8469;60.136;15.180;2023-06-19T02:07:05;9.55;;;5.50;;
16705;SDS011;8469;60.136;15.180;2023-06-19T02:09:33;11.03;;;5.80;;
16705;SDS011;8469;60.136;15.180;2023-06-19T02:12:00;9.75;;;5.70;;
16705;SDS011;8469;60.136;15.180;2023-06-19T02:14:27;10.00;;;6.12;;
16705;SDS011;8469;60.136;15.180;2023-06-19T02:16:55;14.95;;;6.22;;
16705;SDS011;8469;60.136;15.180;2023-06-19T02:19:23;9.67;;;6.00;;
16705;SDS011;8469;60.136;15.180;2023-06-19T02:21:50;10.93;;;5.75;;
16705;SDS011;8469;60.136;15.180;2023-06-19T02:24:18;9.13;;;6.37;;
16705;SDS011;8469;60.136;15.180;2023-06-19T02:26:44;11.53;;;6.37;;
16705;SDS011;8469;60.136;15.180;2023-06-19T02:29:13;7.72;;;5.72;;
16705;SDS011;8469;60.136;15.180;2023-06-19T02:31:40;11.55;;;6.17;;
16705;SDS011;8469;60.136;15.180;2023-06-19T02:34:08;9.50;;;5.78;;
16705;SDS011;8469;60.136;15.180;2023-06-19T02:36:36;11.15;;;6.17;;
16705;SDS011;8469;60.136;15.180;2023-06-19T02:39:04;9.03;;;6.25;;
16705;SDS011;8469;60.136;15.180;2023-06-19T02:41:32;12.25;;;6.20;;
16705;SDS011;8469;60.136;15.180;2023-06-19T02:43:59;9.40;;;6.37;;
16705;SDS011;8469;60.136;15.180;2023-06-19T02:46:27;11.35;;;6.30;;
16705;SDS011;8469;60.136;15.180;2023-06-19T02:48:54;14.20;;;5.97;;
16705;SDS011;8469;60.136;15.180;2023-06-19T02:51:22;11.15;;;6.12;;
16705;SDS011;8469;60.136;15.180;2023-06-19T02:53:49;9.70;;;6.15;;
16705;SDS011;8469;60.136;15.180;2023-06-19T02:56:17;11.57;;;6.50;;
16705;SDS011;8469;60.136;15.180;2023-06-19T02:58:44;12.37;;;6.33;;
16705;SDS011;8469;60.136;15.180;2023-06-19T03:01:12;9.88;;;6.05;;
16705;SDS011;8469;60.136;15.180;2023-06-19T03:03:39;9.77;;;6.10;;
16705;SDS011;8469;60.136;15.180;2023-06-19T03:06:07;10.15;;;6.15;;
16705;SDS011;8469;60.136;15.180;2023-06-19T03:08:35;11.48;;;6.35;;
16705;SDS011;8469;60.136;15.180;2023-06-19T03:11:03;13.30;;;6.90;;
16705;SDS011;8469;60.136;15.180;2023-06-19T03:13:43;9.93;;;6.30;;
16705;SDS011;8469;60.136;15.180;2023-06-19T03:16:14;13.10;;;6.67;;
16705;SDS011;8469;60.136;15.180;2023-06-19T03:18:44;10.00;;;6.12;;
16705;SDS011;8469;60.136;15.180;2023-06-19T03:21:12;10.38;;;7.17;;
16705;SDS011;8469;60.136;15.180;2023-06-19T03:23:39;10.35;;;6.50;;
16705;SDS011;8469;60.136;15.180;2023-06-19T03:26:08;11.80;;;6.55;;
16705;SDS011;8469;60.136;15.180;2023-06-19T03:28:36;8.73;;;6.80;;
16705;SDS011;8469;60.136;15.180;2023-06-19T03:31:04;11.35;;;6.12;;
16705;SDS011;8469;60.136;15.180;2023-06-19T03:33:31;11.00;;;6.60;;
16705;SDS011;8469;60.136;15.180;2023-06-19T03:35:58;9.67;;;6.53;;
16705;SDS011;8469;60.136;15.180;2023-06-19T03:38:26;12.88;;;5.75;;
16705;SDS011;8469;60.136;15.180;2023-06-19T03:40:58;9.65;;;6.45;;
16705;SDS011;8469;60.136;15.180;2023-06-19T03:43:22;11.53;;;6.53;;
16705;SDS011;8469;60.136;15.180;2023-06-19T03:45:49;8.93;;;6.30;;
16705;SDS011;8469;60.136;15.180;2023-06-19T03:48:17;11.30;;;6.77;;
16705;SDS011;8469;60.136;15.180;2023-06-19T03:50:44;11.50;;;6.50;;
16705;SDS011;8469;60.136;15.180;2023-06-19T03:53:12;9.65;;;6.53;;
16705;SDS011;8469;60.136;15.180;2023-06-19T03:55:39;11.12;;;6.62;;
16705;SDS011;8469;60.136;15.180;2023-06-19T03:58:06;8.73;;;6.12;;
16705;SDS011;8469;60.136;15.180;2023-06-19T04:00:34;8.55;;;6.58;;
16705;SDS011;8469;60.136;15.180;2023-06-19T04:03:01;9.08;;;6.53;;
16705;SDS011;8469;60.136;15.180;2023-06-19T04:05:28;10.20;;;6.95;;
16705;SDS011;8469;60.136;15.180;2023-06-19T04:07:56;12.05;;;6.62;;
16705;SDS011;8469;60.136;15.180;2023-06-19T04:10:23;11.63;;;6.63;;
16705;SDS011;8469;60.136;15.180;2023-06-19T04:12:51;8.88;;;6.40;;
16705;SDS011;8469;60.136;15.180;2023-06-19T04:15:18;11.78;;;6.80;;
16705;SDS011;8469;60.136;15.180;2023-06-19T04:17:45;9.17;;;6.63;;
16705;SDS011;8469;60.136;15.180;2023-06-19T04:20:13;10.72;;;6.85;;
16705;SDS011;8469;60.136;15.180;2023-06-19T04:22:40;11.93;;;7.20;;
16705;SDS011;8469;60.136;15.180;2023-06-19T04:25:08;8.08;;;6.20;;
16705;SDS011;8469;60.136;15.180;2023-06-19T04:27:38;10.90;;;6.97;;
16705;SDS011;8469;60.136;15.180;2023-06-19T04:30:05;7.85;;;6.70;;
16705;SDS011;8469;60.136;15.180;2023-06-19T04:32:33;12.27;;;6.80;;
16705;SDS011;8469;60.136;15.180;2023-06-19T04:35:02;10.43;;;6.60;;
16705;SDS011;8469;60.136;15.180;2023-06-19T04:37:30;10.55;;;6.50;;
16705;SDS011;8469;60.136;15.180;2023-06-19T04:39:58;11.67;;;7.10;;
16705;SDS011;8469;60.136;15.180;2023-06-19T04:42:25;11.95;;;7.37;;
16705;SDS011;8469;60.136;15.180;2023-06-19T04:44:52;9.18;;;7.05;;
16705;SDS011;8469;60.136;15.180;2023-06-19T04:47:22;10.30;;;7.47;;
16705;SDS011;8469;60.136;15.180;2023-06-19T04:49:49;11.73;;;6.62;;
16705;SDS011;8469;60.136;15.180;2023-06-19T04:52:17;8.90;;;7.03;;
16705;SDS011;8469;60.136;15.180;2023-06-19T04:54:45;9.78;;;6.72;;
16705;SDS011;8469;60.136;15.180;2023-06-19T04:57:14;12.23;;;7.35;;
16705;SDS011;8469;60.136;15.180;2023-06-19T04:59:44;9.05;;;6.58;;
16705;SDS011;8469;60.136;15.180;2023-06-19T05:02:12;10.75;;;7.10;;
16705;SDS011;8469;60.136;15.180;2023-06-19T05:04:39;9.97;;;6.87;;
16705;SDS011;8469;60.136;15.180;2023-06-19T05:07:09;9.30;;;7.17;;
16705;SDS011;8469;60.136;15.180;2023-06-19T05:09:37;11.10;;;7.40;;
16705;SDS011;8469;60.136;15.180;2023-06-19T05:12:04;12.65;;;7.60;;
16705;SDS011;8469;60.136;15.180;2023-06-19T05:14:32;11.08;;;7.83;;
16705;SDS011;8469;60.136;15.180;2023-06-19T05:16:59;10.78;;;7.45;;
16705;SDS011;8469;60.136;15.180;2023-06-19T05:19:26;19.30;;;7.70;;
16705;SDS011;8469;60.136;15.180;2023-06-19T05:21:54;11.95;;;7.67;;
16705;SDS011;8469;60.136;15.180;2023-06-19T05:24:21;12.05;;;8.20;;
16705;SDS011;8469;60.136;15.180;2023-06-19T05:26:48;13.05;;;7.87;;
16705;SDS011;8469;60.136;15.180;2023-06-19T05:29:16;12.65;;;8.28;;
16705;SDS011;8469;60.136;15.180;2023-06-19T05:31:43;10.15;;;8.25;;
16705;SDS011;8469;60.136;15.180;2023-06-19T05:34:10;10.70;;;7.62;;
16705;SDS011;8469;60.136;15.180;2023-06-19T05:36:38;10.53;;;7.92;;
16705;SDS011;8469;60.136;15.180;2023-06-19T05:39:05;9.98;;;8.08;;
16705;SDS011;8469;60.136;15.180;2023-06-19T05:41:32;12.35;;;8.33;;
16705;SDS011;8469;60.136;15.180;2023-06-19T05:44:00;10.68;;;8.50;;
16705;SDS011;8469;60.136;15.180;2023-06-19T05:46:28;12.55;;;7.95;;
16705;SDS011;8469;60.136;15.180;2023-06-19T05:48:55;12.35;;;8.23;;
16705;SDS011;8469;60.136;15.180;2023-06-19T05:51:22;12.78;;;8.50;;
16705;SDS011;8469;60.136;15.180;2023-06-19T05:53:51;12.53;;;8.48;;
16705;SDS011;8469;60.136;15.180;2023-06-19T05:56:18;12.63;;;7.75;;
16705;SDS011;8469;60.136;15.180;2023-06-19T05:58:46;12.03;;;8.28;;
16705;SDS011;8469;60.136;15.180;2023-06-19T06:01:13;13.53;;;8.50;;
16705;SDS011;8469;60.136;15.180;2023-06-19T06:03:40;12.25;;;8.30;;
16705;SDS011;8469;60.136;15.180;2023-06-19T06:06:08;10.87;;;8.20;;
16705;SDS011;8469;60.136;15.180;2023-06-19T06:08:35;10.80;;;7.78;;
16705;SDS011;8469;60.136;15.180;2023-06-19T06:11:03;12.25;;;8.20;;
16705;SDS011;8469;60.136;15.180;2023-06-19T06:13:30;12.77;;;8.00;;
16705;SDS011;8469;60.136;15.180;2023-06-19T06:15:57;10.10;;;7.75;;
16705;SDS011;8469;60.136;15.180;2023-06-19T06:18:25;9.90;;;7.35;;
16705;SDS011;8469;60.136;15.180;2023-06-19T06:20:55;9.15;;;7.90;;
16705;SDS011;8469;60.136;15.180;2023-06-19T06:23:22;10.63;;;8.00;;
16705;SDS011;8469;60.136;15.180;2023-06-19T06:25:50;9.70;;;7.62;;
16705;SDS011;8469;60.136;15.180;2023-06-19T06:28:17;10.68;;;7.80;;
16705;SDS011;8469;60.136;15.180;2023-06-19T06:30:44;11.30;;;8.50;;
16705;SDS011;8469;60.136;15.180;2023-06-19T06:33:12;11.50;;;8.45;;
16705;SDS011;8469;60.136;15.180;2023-06-19T06:35:39;12.20;;;8.80;;
16705;SDS011;8469;60.136;15.180;2023-06-19T06:38:07;12.23;;;8.65;;
16705;SDS011;8469;60.136;15.180;2023-06-19T06:40:43;11.97;;;8.95;;
16705;SDS011;8469;60.136;15.180;2023-06-19T06:43:09;12.33;;;8.73;;
16705;SDS011;8469;60.136;15.180;2023-06-19T06:45:36;12.50;;;8.33;;
16705;SDS011;8469;60.136;15.180;2023-06-19T06:48:08;10.32;;;8.40;;
16705;SDS011;8469;60.136;15.180;2023-06-19T06:50:35;12.03;;;8.47;;
16705;SDS011;8469;60.136;15.180;2023-06-19T06:53:03;13.95;;;9.20;;
16705;SDS011;8469;60.136;15.180;2023-06-19T06:55:30;11.10;;;8.80;;
16705;SDS011;8469;60.136;15.180;2023-06-19T06:57:57;11.18;;;8.93;;
16705;SDS011;8469;60.136;15.180;2023-06-19T07:00:25;12.78;;;9.40;;
16705;SDS011;8469;60.136;15.180;2023-06-19T07:02:53;11.60;;;8.73;;
16705;SDS011;8469;60.136;15.180;2023-06-19T07:05:20;15.20;;;9.10;;
16705;SDS011;8469;60.136;15.180;2023-06-19T07:07:47;13.58;;;9.55;;
16705;SDS011;8469;60.136;15.180;2023-06-19T07:10:14;11.45;;;8.73;;
16705;SDS011;8469;60.136;15.180;2023-06-19T07:12:46;13.43;;;9.03;;
16705;SDS011;8469;60.136;15.180;2023-06-19T07:15:13;11.85;;;8.75;;
16705;SDS011;8469;60.136;15.180;2023-06-19T07:17:41;10.70;;;8.50;;
16705;SDS011;8469;60.136;15.180;2023-06-19T07:20:08;11.60;;;8.55;;
16705;SDS011;8469;60.136;15.180;2023-06-19T07:22:36;11.25;;;7.80;;
16705;SDS011;8469;60.136;15.180;2023-06-19T07:25:03;8.53;;;7.25;;
16705;SDS011;8469;60.136;15.180;2023-06-19T07:27:31;10.80;;;7.80;;
16705;SDS011;8469;60.136;15.180;2023-06-19T07:29:58;10.35;;;7.78;;
16705;SDS011;8469;60.136;15.180;2023-06-19T07:32:26;10.90;;;8.60;;
16705;SDS011;8469;60.136;15.180;2023-06-19T07:34:53;8.47;;;6.93;;
16705;SDS011;8469;60.136;15.180;2023-06-19T07:37:21;6.95;;;5.80;;
16705;SDS011;8469;60.136;15.180;2023-06-19T07:39:48;6.70;;;5.30;;
16705;SDS011;8469;60.136;15.180;2023-06-19T07:42:21;5.40;;;4.90;;
16705;SDS011;8469;60.136;15.180;2023-06-19T07:44:45;5.93;;;4.80;;
16705;SDS011;8469;60.136;15.180;2023-06-19T07:47:15;5.30;;;4.80;;
16705;SDS011;8469;60.136;15.180;2023-06-19T07:49:44;5.50;;;4.40;;
16705;SDS011;8469;60.136;15.180;2023-06-19T07:52:11;4.65;;;4.10;;
16705;SDS011;8469;60.136;15.180;2023-06-19T07:54:53;4.53;;;4.12;;
16705;SDS011;8469;60.136;15.180;2023-06-19T07:57:21;4.87;;;4.47;;
16705;SDS011;8469;60.136;15.180;2023-06-19T07:59:49;5.15;;;4.75;;
16705;SDS011;8469;60.136;15.180;2023-06-19T08:02:16;4.90;;;4.50;;
16705;SDS011;8469;60.136;15.180;2023-06-19T08:04:44;6.30;;;5.17;;
16705;SDS011;8469;60.136;15.180;2023-06-19T08:07:12;4.87;;;4.40;;
16705;SDS011;8469;60.136;15.180;2023-06-19T08:09:39;5.05;;;4.55;;
16705;SDS011;8469;60.136;15.180;2023-06-19T08:12:07;5.40;;;4.90;;
16705;SDS011;8469;60.136;15.180;2023-06-19T08:14:34;5.10;;;4.60;;
16705;SDS011;8469;60.136;15.180;2023-06-19T08:17:01;5.67;;;5.08;;
16705;SDS011;8469;60.136;15.180;2023-06-19T08:19:29;5.20;;;4.80;;
16705;SDS011;8469;60.136;15.180;2023-06-19T08:21:56;5.75;;;5.22;;
16705;SDS011;8469;60.136;15.180;2023-06-19T08:24:23;5.78;;;4.90;;
16705;SDS011;8469;60.136;15.180;2023-06-19T08:26:50;7.23;;;5.27;;
16705;SDS011;8469;60.136;15.180;2023-06-19T08:29:18;6.10;;;5.50;;
16705;SDS011;8469;60.136;15.180;2023-06-19T08:31:46;7.90;;;5.80;;
16705;SDS011;8469;60.136;15.180;2023-06-19T08:34:13;7.28;;;6.20;;
16705;SDS011;8469;60.136;15.180;2023-06-19T08:36:40;6.78;;;6.08;;
16705;SDS011;8469;60.136;15.180;2023-06-19T08:39:07;7.45;;;6.33;;
16705;SDS011;8469;60.136;15.180;2023-06-19T08:41:40;7.22;;;6.50;;
16705;SDS011;8469;60.136;15.180;2023-06-19T08:44:04;8.83;;;7.35;;
16705;SDS011;8469;60.136;15.180;2023-06-19T08:46:32;7.65;;;6.80;;
16705;SDS011;8469;60.136;15.180;2023-06-19T08:49:00;8.30;;;7.22;;
16705;SDS011;8469;60.136;15.180;2023-06-19T08:51:28;7.83;;;6.97;;
16705;SDS011;8469;60.136;15.180;2023-06-19T08:54:00;8.20;;;7.23;;
16705;SDS011;8469;60.136;15.180;2023-06-19T08:56:25;7.67;;;6.90;;
16705;SDS011;8469;60.136;15.180;2023-06-19T08:58:53;8.00;;;7.20;;
16705;SDS011;8469;60.136;15.180;2023-06-19T09:01:20;7.20;;;6.40;;
16705;SDS011;8469;60.136;15.180;2023-06-19T09:03:49;7.12;;;6.20;;
16705;SDS011;8469;60.136;15.180;2023-06-19T09:06:18;7.28;;;6.58;;
16705;SDS011;8469;60.136;15.180;2023-06-19T09:08:45;7.83;;;6.87;;
16705;SDS011;8469;60.136;15.180;2023-06-19T09:11:17;8.70;;;7.37;;
16705;SDS011;8469;60.136;15.180;2023-06-19T09:13:45;10.03;;;7.77;;
16705;SDS011;8469;60.136;15.180;2023-06-19T09:16:12;8.85;;;7.87;;
16705;SDS011;8469;60.136;15.180;2023-06-19T09:18:43;9.00;;;8.10;;
16705;SDS011;8469;60.136;15.180;2023-06-19T09:21:18;9.13;;;8.17;;
16705;SDS011;8469;60.136;15.180;2023-06-19T09:23:47;14.00;;;8.38;;
16705;SDS011;8469;60.136;15.180;2023-06-19T09:26:17;10.43;;;8.55;;
16705;SDS011;8469;60.136;15.180;2023-06-19T09:28:45;12.73;;;8.50;;
16705;SDS011;8469;60.136;15.180;2023-06-19T09:31:13;11.03;;;8.80;;
16705;SDS011;8469;60.136;15.180;2023-06-19T09:33:40;9.65;;;8.58;;
16705;SDS011;8469;60.136;15.180;2023-06-19T09:36:08;10.23;;;8.40;;
16705;SDS011;8469;60.136;15.180;2023-06-19T09:38:36;11.55;;;9.05;;
16705;SDS011;8469;60.136;15.180;2023-06-19T09:41:07;10.88;;;8.30;;
16705;SDS011;8469;60.136;15.180;2023-06-19T09:43:38;10.00;;;8.40;;
16705;SDS011;8469;60.136;15.180;2023-06-19T09:46:06;9.70;;;8.30;;
16705;SDS011;8469;60.136;15.180;2023-06-19T09:48:34;10.45;;;8.38;;
16705;SDS011;8469;60.136;15.180;2023-06-19T09:51:09;12.23;;;8.48;;
16705;SDS011;8469;60.136;15.180;2023-06-19T09:53:37;9.13;;;8.23;;
16705;SDS011;8469;60.136;15.180;2023-06-19T09:56:04;11.05;;;8.63;;
16705;SDS011;8469;60.136;15.180;2023-06-19T09:58:33;11.30;;;8.55;;
16705;SDS011;8469;60.136;15.180;2023-06-19T10:01:03;9.13;;;8.20;;
16705;SDS011;8469;60.136;15.180;2023-06-19T10:03:31;10.00;;;8.25;;
16705;SDS011;8469;60.136;15.180;2023-06-19T10:05:59;9.90;;;8.40;;
16705;SDS011;8469;60.136;15.180;2023-06-19T10:08:27;11.03;;;8.28;;
16705;SDS011;8469;60.136;15.180;2023-06-19T10:10:55;10.58;;;8.50;;
16705;SDS011;8469;60.136;15.180;2023-06-19T10:13:30;10.80;;;8.45;;
16705;SDS011;8469;60.136;15.180;2023-06-19T10:15:52;8.90;;;7.75;;
16705;SDS011;8469;60.136;15.180;2023-06-19T10:18:19;8.93;;;7.70;;
16705;SDS011;8469;60.136;15.180;2023-06-19T10:20:47;9.58;;;8.10;;
16705;SDS011;8469;60.136;15.180;2023-06-19T10:23:16;9.68;;;8.13;;
16705;SDS011;8469;60.136;15.180;2023-06-19T10:25:45;8.40;;;7.37;;
16705;SDS011;8469;60.136;15.180;2023-06-19T10:30:58;9.40;;;7.62;;
16705;SDS011;8469;60.136;15.180;2023-06-19T10:33:16;8.83;;;7.37;;
16705;SDS011;8469;60.136;15.180;2023-06-19T10:35:44;9.33;;;7.28;;
16705;SDS011;8469;60.136;15.180;2023-06-19T10:38:14;9.80;;;7.40;;
16705;SDS011;8469;60.136;15.180;2023-06-19T10:40:39;8.38;;;7.50;;
16705;SDS011;8469;60.136;15.180;2023-06-19T10:43:07;9.65;;;7.65;;
16705;SDS011;8469;60.136;15.180;2023-06-19T10:45:35;9.13;;;7.70;;
16705;SDS011;8469;60.136;15.180;2023-06-19T10:48:08;8.43;;;7.53;;
16705;SDS011;8469;60.136;15.180;2023-06-19T10:50:37;8.73;;;7.75;;
16705;SDS011;8469;60.136;15.180;2023-06-19T10:53:06;9.88;;;7.28;;
16705;SDS011;8469;60.136;15.180;2023-06-19T10:55:31;10.28;;;7.47;;
16705;SDS011;8469;60.136;15.180;2023-06-19T10:57:59;8.90;;;7.70;;
16705;SDS011;8469;60.136;15.180;2023-06-19T11:00:27;10.00;;;7.65;;
16705;SDS011;8469;60.136;15.180;2023-06-19T11:03:00;9.88;;;7.67;;
16705;SDS011;8469;60.136;15.180;2023-06-19T11:05:24;11.22;;;7.12;;
16705;SDS011;8469;60.136;15.180;2023-06-19T11:07:57;9.45;;;7.28;;
16705;SDS011;8469;60.136;15.180;2023-06-19T11:10:22;7.53;;;6.72;;
16705;SDS011;8469;60.136;15.180;2023-06-19T11:12:53;9.80;;;7.00;;
16705;SDS011;8469;60.136;15.180;2023-06-19T11:15:19;8.33;;;7.42;;
16705;SDS011;8469;60.136;15.180;2023-06-19T11:17:46;8.73;;;7.28;;
16705;SDS011;8469;60.136;15.180;2023-06-19T11:20:14;9.03;;;7.33;;
16705;SDS011;8469;60.136;15.180;2023-06-19T11:22:41;9.25;;;7.65;;
16705;SDS011;8469;60.136;15.180;2023-06-19T11:25:09;11.93;;;7.37;;
16705;SDS011;8469;60.136;15.180;2023-06-19T11:27:37;12.30;;;7.67;;
16705;SDS011;8469;60.136;15.180;2023-06-19T11:30:06;9.50;;;7.80;;
16705;SDS011;8469;60.136;15.180;2023-06-19T11:32:35;13.53;;;7.65;;
16705;SDS011;8469;60.136;15.180;2023-06-19T11:35:04;8.80;;;7.47;;
16705;SDS011;8469;60.136;15.180;2023-06-19T11:37:40;8.67;;;7.77;;
16705;SDS011;8469;60.136;15.180;2023-06-19T11:40:08;10.08;;;7.30;;
16705;SDS011;8469;60.136;15.180;2023-06-19T11:42:44;7.95;;;7.12;;
16705;SDS011;8469;60.136;15.180;2023-06-19T11:45:12;10.70;;;7.92;;
16705;SDS011;8469;60.136;15.180;2023-06-19T11:47:40;8.93;;;7.00;;
16705;SDS011;8469;60.136;15.180;2023-06-19T11:50:07;8.03;;;6.70;;
16705;SDS011;8469;60.136;15.180;2023-06-19T11:52:35;9.70;;;7.00;;
16705;SDS011;8469;60.136;15.180;2023-06-19T11:55:02;8.38;;;6.50;;
16705;SDS011;8469;60.136;15.180;2023-06-19T11:57:29;9.83;;;7.17;;
16705;SDS011;8469;60.136;15.180;2023-06-19T11:59:58;7.90;;;6.80;;
16705;SDS011;8469;60.136;15.180;2023-06-19T12:02:26;10.00;;;7.30;;
16705;SDS011;8469;60.136;15.180;2023-06-19T12:04:53;12.63;;;7.35;;
16705;SDS011;8469;60.136;15.180;2023-06-19T12:07:20;9.90;;;7.47;;
16705;SDS011;8469;60.136;15.180;2023-06-19T12:09:48;17.25;;;7.50;;
16705;SDS011;8469;60.136;15.180;2023-06-19T12:12:15;7.50;;;6.80;;
16705;SDS011;8469;60.136;15.180;2023-06-19T12:14:43;8.45;;;6.72;;
16705;SDS011;8469;60.136;15.180;2023-06-19T12:17:13;8.40;;;6.90;;
16705;SDS011;8469;60.136;15.180;2023-06-19T12:19:39;8.83;;;7.08;;
16705;SDS011;8469;60.136;15.180;2023-06-19T12:22:06;8.15;;;6.70;;
16705;SDS011;8469;60.136;15.180;2023-06-19T12:24:34;12.25;;;6.80;;
16705;SDS011;8469;60.136;15.180;2023-06-19T12:27:01;8.48;;;7.20;;
16705;SDS011;8469;60.136;15.180;2023-06-19T12:29:28;9.80;;;7.43;;
16705;SDS011;8469;60.136;15.180;2023-06-19T12:32:02;8.35;;;7.08;;
16705;SDS011;8469;60.136;15.180;2023-06-19T12:34:30;8.90;;;6.60;;
16705;SDS011;8469;60.136;15.180;2023-06-19T12:36:57;9.40;;;7.05;;
16705;SDS011;8469;60.136;15.180;2023-06-19T12:39:25;8.03;;;7.20;;
16705;SDS011;8469;60.136;15.180;2023-06-19T12:41:52;9.20;;;7.50;;
16705;SDS011;8469;60.136;15.180;2023-06-19T12:44:21;13.08;;;7.35;;
16705;SDS011;8469;60.136;15.180;2023-06-19T12:46:49;10.23;;;7.10;;
16705;SDS011;8469;60.136;15.180;2023-06-19T12:49:16;9.18;;;7.47;;
16705;SDS011;8469;60.136;15.180;2023-06-19T12:51:43;10.45;;;7.25;;
16705;SDS011;8469;60.136;15.180;2023-06-19T12:54:11;9.48;;;7.20;;
16705;SDS011;8469;60.136;15.180;2023-06-19T12:56:38;10.87;;;7.13;;
16705;SDS011;8469;60.136;15.180;2023-06-19T12:59:05;11.10;;;7.40;;
16705;SDS011;8469;60.136;15.180;2023-06-19T13:01:33;9.53;;;7.47;;
16705;SDS011;8469;60.136;15.180;2023-06-19T13:04:00;11.95;;;7.12;;
16705;SDS011;8469;60.136;15.180;2023-06-19T13:06:27;10.88;;;7.55;;
16705;SDS011;8469;60.136;15.180;2023-06-19T13:08:55;8.37;;;7.37;;
16705;SDS011;8469;60.136;15.180;2023-06-19T13:11:22;11.25;;;7.03;;
16705;SDS011;8469;60.136;15.180;2023-06-19T13:13:49;7.92;;;6.80;;
16705;SDS011;8469;60.136;15.180;2023-06-19T13:16:17;9.30;;;7.62;;
16705;SDS011;8469;60.136;15.180;2023-06-19T13:18:45;7.67;;;6.53;;
16705;SDS011;8469;60.136;15.180;2023-06-19T13:21:14;8.23;;;7.33;;
16705;SDS011;8469;60.136;15.180;2023-06-19T13:23:42;8.45;;;7.30;;
16705;SDS011;8469;60.136;15.180;2023-06-19T13:26:10;7.90;;;7.10;;
16705;SDS011;8469;60.136;15.180;2023-06-19T13:28:37;8.73;;;7.33;;
16705;SDS011;8469;60.136;15.180;2023-06-19T13:31:05;14.47;;;7.50;;
16705;SDS011;8469;60.136;15.180;2023-06-19T13:33:33;9.40;;;6.92;;
16705;SDS011;8469;60.136;15.180;2023-06-19T13:36:00;9.45;;;6.78;;
16705;SDS011;8469;60.136;15.180;2023-06-19T13:38:28;8.77;;;6.97;;
16705;SDS011;8469;60.136;15.180;2023-06-19T13:40:55;10.98;;;7.00;;
16705;SDS011;8469;60.136;15.180;2023-06-19T13:43:22;7.92;;;7.12;;
16705;SDS011;8469;60.136;15.180;2023-06-19T13:45:49;8.10;;;7.30;;
16705;SDS011;8469;60.136;15.180;2023-06-19T13:48:17;8.73;;;7.03;;
16705;SDS011;8469;60.136;15.180;2023-06-19T13:50:46;8.98;;;6.97;;
16705;SDS011;8469;60.136;15.180;2023-06-19T13:53:13;7.92;;;6.50;;
16705;SDS011;8469;60.136;15.180;2023-06-19T13:55:41;7.47;;;6.60;;
16705;SDS011;8469;60.136;15.180;2023-06-19T13:58:07;11.10;;;7.17;;
16705;SDS011;8469;60.136;15.180;2023-06-19T14:00:36;7.90;;;6.97;;
16705;SDS011;8469;60.136;15.180;2023-06-19T14:03:03;7.50;;;6.53;;
16705;SDS011;8469;60.136;15.180;2023-06-19T14:05:32;7.83;;;6.23;;
16705;SDS011;8469;60.136;15.180;2023-06-19T14:08:00;7.15;;;6.42;;
16705;SDS011;8469;60.136;15.180;2023-06-19T14:10:27;7.42;;;6.70;;
16705;SDS011;8469;60.136;15.180;2023-06-19T14:12:54;9.28;;;6.45;;
16705;SDS011;8469;60.136;15.180;2023-06-19T14:15:22;7.53;;;6.05;;
16705;SDS011;8469;60.136;15.180;2023-06-19T14:17:49;7.70;;;6.10;;
16705;SDS011;8469;60.136;15.180;2023-06-19T14:20:16;7.15;;;6.05;;
16705;SDS011;8469;60.136;15.180;2023-06-19T14:22:44;8.33;;;6.42;;
16705;SDS011;8469;60.136;15.180;2023-06-19T14:25:11;7.95;;;6.50;;
16705;SDS011;8469;60.136;15.180;2023-06-19T14:27:39;6.50;;;5.90;;
16705;SDS011;8469;60.136;15.180;2023-06-19T14:30:06;7.03;;;6.17;;
16705;SDS011;8469;60.136;15.180;2023-06-19T14:32:39;8.00;;;6.00;;
16705;SDS011;8469;60.136;15.180;2023-06-19T14:35:03;7.42;;;6.05;;
16705;SDS011;8469;60.136;15.180;2023-06-19T14:37:31;8.53;;;6.03;;
16705;SDS011;8469;60.136;15.180;2023-06-19T14:39:58;7.03;;;6.33;;
16705;SDS011;8469;60.136;15.180;2023-06-19T14:42:27;8.13;;;5.90;;
16705;SDS011;8469;60.136;15.180;2023-06-19T14:44:54;7.00;;;6.10;;
16705;SDS011;8469;60.136;15.180;2023-06-19T14:47:21;6.42;;;5.83;;